sensor_id;sensor_type;location;lat;lon;timestamp;pressure;altitude;pressure_sealevel;temperature;humidity
70323;BME280;57735;56.264;43.898;2023-04-21T00:00:01;100726.75;;;9.57;43.29
70323;BME280;57735;56.264;43.898;2023-04-21T00:02:32;100732.38;;;9.54;42.97
70323;BME280;57735;56.264;43.898;2023-04-21T00:05:02;100728.19;;;9.51;43.49
70323;BME280;57735;56.264;43.898;2023-04-21T00:07:34;100730.13;;;9.49;43.66
70323;BME280;57735;56.264;43.898;2023-04-21T00:10:09;100726.63;;;9.49;43.20
70323;BME280;57735;56.264;43.898;2023-04-21T00:12:40;100729.03;;;9.52;43.46
70323;BME280;57735;56.264;43.898;2023-04-21T00:15:11;100729.44;;;9.57;43.62
70323;BME280;57735;56.264;43.898;2023-04-21T00:17:42;100728.88;;;9.63;43.31
70323;BME280;57735;56.264;43.898;2023-04-21T00:20:13;100733.81;;;9.67;43.36
70323;BME280;57735;56.264;43.898;2023-04-21T00:22:44;100730.56;;;9.73;41.75
70323;BME280;57735;56.264;43.898;2023-04-21T00:25:15;100716.56;;;9.81;41.42
70323;BME280;57735;56.264;43.898;2023-04-21T00:27:46;100720.34;;;9.88;41.13
70323;BME280;57735;56.264;43.898;2023-04-21T00:30:17;100718.94;;;9.94;41.02
70323;BME280;57735;56.264;43.898;2023-04-21T00:32:48;100709.81;;;9.96;40.26
70323;BME280;57735;56.264;43.898;2023-04-21T00:35:18;100712.34;;;9.98;39.96
70323;BME280;57735;56.264;43.898;2023-04-21T00:37:52;100709.97;;;9.95;39.96
70323;BME280;57735;56.264;43.898;2023-04-21T00:40:22;100701.13;;;9.94;39.90
70323;BME280;57735;56.264;43.898;2023-04-21T00:42:53;100704.22;;;9.90;40.21
70323;BME280;57735;56.264;43.898;2023-04-21T00:45:24;100699.19;;;9.87;39.95
70323;BME280;57735;56.264;43.898;2023-04-21T00:47:57;100699.03;;;9.78;39.89
70323;BME280;57735;56.264;43.898;2023-04-21T00:50:28;100699.59;;;9.72;39.96
70323;BME280;57735;56.264;43.898;2023-04-21T00:52:59;100705.50;;;9.66;40.11
70323;BME280;57735;56.264;43.898;2023-04-21T00:55:30;100697.34;;;9.58;40.49
70323;BME280;57735;56.264;43.898;2023-04-21T00:58:02;100696.53;;;9.48;40.67
70323;BME280;57735;56.264;43.898;2023-04-21T01:00:33;100690.34;;;9.38;41.40
70323;BME280;57735;56.264;43.898;2023-04-21T01:03:04;100696.34;;;9.30;41.82
70323;BME280;57735;56.264;43.898;2023-04-21T01:05:38;100699.84;;;9.21;42.56
70323;BME280;57735;56.264;43.898;2023-04-21T01:08:09;100698.97;;;9.11;42.99
70323;BME280;57735;56.264;43.898;2023-04-21T01:10:40;100701.50;;;9.03;43.40
70323;BME280;57735;56.264;43.898;2023-04-21T01:13:10;100699.50;;;8.95;44.18
70323;BME280;57735;56.264;43.898;2023-04-21T01:15:41;100692.22;;;8.88;43.89
70323;BME280;57735;56.264;43.898;2023-04-21T01:18:12;100696.38;;;8.81;44.65
70323;BME280;57735;56.264;43.898;2023-04-21T01:20:43;100695.78;;;8.77;44.97
70323;BME280;57735;56.264;43.898;2023-04-21T01:23:14;100687.53;;;8.70;45.46
70323;BME280;57735;56.264;43.898;2023-04-21T01:25:47;100692.41;;;8.65;45.64
70323;BME280;57735;56.264;43.898;2023-04-21T01:28:24;100694.72;;;8.59;45.54
70323;BME280;57735;56.264;43.898;2023-04-21T01:30:55;100692.88;;;8.50;46.06
70323;BME280;57735;56.264;43.898;2023-04-21T01:33:26;100696.06;;;8.44;46.00
70323;BME280;57735;56.264;43.898;2023-04-21T01:35:58;100688.06;;;8.34;46.09
70323;BME280;57735;56.264;43.898;2023-04-21T01:38:32;100694.09;;;8.25;46.86
70323;BME280;57735;56.264;43.898;2023-04-21T01:41:03;100695.75;;;8.16;47.02
70323;BME280;57735;56.264;43.898;2023-04-21T01:43:34;100697.34;;;8.07;47.17
70323;BME280;57735;56.264;43.898;2023-04-21T01:46:06;100694.25;;;8.02;47.18
70323;BME280;57735;56.264;43.898;2023-04-21T01:48:36;100695.47;;;7.98;47.09
70323;BME280;57735;56.264;43.898;2023-04-21T01:51:07;100696.72;;;7.94;47.44
70323;BME280;57735;56.264;43.898;2023-04-21T01:53:38;100692.75;;;7.89;47.74
70323;BME280;57735;56.264;43.898;2023-04-21T01:56:12;100681.09;;;7.80;48.25
70323;BME280;57735;56.264;43.898;2023-04-21T01:58:43;100686.06;;;7.74;48.36
70323;BME280;57735;56.264;43.898;2023-04-21T02:01:21;100683.09;;;7.67;48.88
70323;BME280;57735;56.264;43.898;2023-04-21T02:03:52;100686.13;;;7.62;48.83
70323;BME280;57735;56.264;43.898;2023-04-21T02:06:23;100686.25;;;7.61;49.15
70323;BME280;57735;56.264;43.898;2023-04-21T02:09:01;100687.22;;;7.60;49.24
70323;BME280;57735;56.264;43.898;2023-04-21T02:11:33;100684.56;;;7.60;49.03
70323;BME280;57735;56.264;43.898;2023-04-21T02:14:03;100689.16;;;7.58;49.25
70323;BME280;57735;56.264;43.898;2023-04-21T02:16:34;100692.78;;;7.57;49.88
70323;BME280;57735;56.264;43.898;2023-04-21T02:19:05;100689.16;;;7.58;49.50
70323;BME280;57735;56.264;43.898;2023-04-21T02:21:36;100689.16;;;7.58;49.71
70323;BME280;57735;56.264;43.898;2023-04-21T02:24:07;100692.66;;;7.58;49.54
70323;BME280;57735;56.264;43.898;2023-04-21T02:26:38;100691.09;;;7.56;49.99
70323;BME280;57735;56.264;43.898;2023-04-21T02:29:14;100696.38;;;7.56;50.35
70323;BME280;57735;56.264;43.898;2023-04-21T02:31:45;100683.41;;;7.53;50.53
70323;BME280;57735;56.264;43.898;2023-04-21T02:34:16;100693.88;;;7.54;50.47
70323;BME280;57735;56.264;43.898;2023-04-21T02:36:47;100690.13;;;7.57;50.13
70323;BME280;57735;56.264;43.898;2023-04-21T02:39:18;100690.97;;;7.57;50.54
70323;BME280;57735;56.264;43.898;2023-04-21T02:41:49;100692.06;;;7.55;51.15
70323;BME280;57735;56.264;43.898;2023-04-21T02:44:19;100691.94;;;7.56;50.72
70323;BME280;57735;56.264;43.898;2023-04-21T02:46:52;100698.66;;;7.60;50.31
70323;BME280;57735;56.264;43.898;2023-04-21T02:49:23;100694.81;;;7.64;50.18
70323;BME280;57735;56.264;43.898;2023-04-21T02:51:54;100694.56;;;7.67;50.28
70323;BME280;57735;56.264;43.898;2023-04-21T02:54:25;100696.13;;;7.70;50.28
70323;BME280;57735;56.264;43.898;2023-04-21T02:56:56;100697.53;;;7.74;50.13
70323;BME280;57735;56.264;43.898;2023-04-21T02:59:26;100695.22;;;7.81;49.88
70323;BME280;57735;56.264;43.898;2023-04-21T03:01:59;100693.88;;;7.86;50.06
70323;BME280;57735;56.264;43.898;2023-04-21T03:04:30;100683.81;;;7.90;50.11
70323;BME280;57735;56.264;43.898;2023-04-21T03:07:01;100684.41;;;7.93;50.02
70323;BME280;57735;56.264;43.898;2023-04-21T03:09:32;100683.91;;;7.99;49.73
70323;BME280;57735;56.264;43.898;2023-04-21T03:12:03;100683.34;;;8.05;49.45
70323;BME280;57735;56.264;43.898;2023-04-21T03:14:33;100685.50;;;8.12;49.63
70323;BME280;57735;56.264;43.898;2023-04-21T03:17:05;100689.34;;;8.19;50.06
70323;BME280;57735;56.264;43.898;2023-04-21T03:19:36;100680.94;;;8.23;49.89
70323;BME280;57735;56.264;43.898;2023-04-21T03:22:07;100686.59;;;8.30;49.29
70323;BME280;57735;56.264;43.898;2023-04-21T03:24:37;100685.28;;;8.35;49.42
70323;BME280;57735;56.264;43.898;2023-04-21T03:27:08;100676.63;;;8.43;49.07
70323;BME280;57735;56.264;43.898;2023-04-21T03:29:39;100674.69;;;8.45;48.98
70323;BME280;57735;56.264;43.898;2023-04-21T03:32:12;100676.09;;;8.49;48.90
70323;BME280;57735;56.264;43.898;2023-04-21T03:34:43;100674.88;;;8.53;48.56
70323;BME280;57735;56.264;43.898;2023-04-21T03:37:13;100670.81;;;8.59;48.39
70323;BME280;57735;56.264;43.898;2023-04-21T03:39:44;100677.16;;;8.67;48.21
70323;BME280;57735;56.264;43.898;2023-04-21T03:42:18;100680.69;;;8.78;47.78
70323;BME280;57735;56.264;43.898;2023-04-21T03:44:49;100676.25;;;8.88;47.70
70323;BME280;57735;56.264;43.898;2023-04-21T03:47:22;100684.94;;;8.99;47.32
70323;BME280;57735;56.264;43.898;2023-04-21T03:49:53;100679.66;;;9.09;47.19
70323;BME280;57735;56.264;43.898;2023-04-21T03:52:24;100678.84;;;9.18;46.67
70323;BME280;57735;56.264;43.898;2023-04-21T03:54:54;100678.97;;;9.26;46.65
70323;BME280;57735;56.264;43.898;2023-04-21T03:57:25;100676.22;;;9.37;45.87
70323;BME280;57735;56.264;43.898;2023-04-21T03:59:56;100671.59;;;9.49;45.26
70323;BME280;57735;56.264;43.898;2023-04-21T04:02:28;100671.16;;;9.63;44.95
70323;BME280;57735;56.264;43.898;2023-04-21T04:05:01;100664.56;;;9.77;44.69
70323;BME280;57735;56.264;43.898;2023-04-21T04:07:34;100662.44;;;9.90;44.27
70323;BME280;57735;56.264;43.898;2023-04-21T04:10:07;100658.66;;;10.02;44.24
70323;BME280;57735;56.264;43.898;2023-04-21T04:12:37;100649.38;;;10.16;43.97
70323;BME280;57735;56.264;43.898;2023-04-21T04:15:08;100656.09;;;10.30;43.81
70323;BME280;57735;56.264;43.898;2023-04-21T04:17:39;100656.59;;;10.43;43.38
70323;BME280;57735;56.264;43.898;2023-04-21T04:20:12;100660.47;;;10.58;43.10
70323;BME280;57735;56.264;43.898;2023-04-21T04:22:43;100655.66;;;10.71;42.62
70323;BME280;57735;56.264;43.898;2023-04-21T04:25:14;100655.16;;;10.86;42.19
70323;BME280;57735;56.264;43.898;2023-04-21T04:27:46;100657.31;;;11.00;41.73
70323;BME280;57735;56.264;43.898;2023-04-21T04:30:18;100650.34;;;11.16;41.55
70323;BME280;57735;56.264;43.898;2023-04-21T04:32:49;100652.34;;;11.32;41.20
70323;BME280;57735;56.264;43.898;2023-04-21T04:35:22;100653.47;;;11.47;40.60
70323;BME280;57735;56.264;43.898;2023-04-21T04:37:53;100651.56;;;11.58;40.36
70323;BME280;57735;56.264;43.898;2023-04-21T04:40:26;100644.03;;;11.71;40.21
70323;BME280;57735;56.264;43.898;2023-04-21T04:42:58;100648.16;;;11.83;39.67
70323;BME280;57735;56.264;43.898;2023-04-21T04:45:29;100649.56;;;11.95;39.42
70323;BME280;57735;56.264;43.898;2023-04-21T04:48:03;100645.81;;;12.06;39.06
70323;BME280;57735;56.264;43.898;2023-04-21T04:50:36;100637.53;;;12.17;38.69
70323;BME280;57735;56.264;43.898;2023-04-21T04:53:07;100638.09;;;12.29;38.77
70323;BME280;57735;56.264;43.898;2023-04-21T04:55:38;100642.50;;;12.38;38.22
70323;BME280;57735;56.264;43.898;2023-04-21T04:58:09;100636.03;;;12.48;38.30
70323;BME280;57735;56.264;43.898;2023-04-21T05:00:40;100633.41;;;12.56;37.43
70323;BME280;57735;56.264;43.898;2023-04-21T05:03:13;100631.44;;;12.67;37.83
70323;BME280;57735;56.264;43.898;2023-04-21T05:05:43;100625.28;;;12.74;37.64
70323;BME280;57735;56.264;43.898;2023-04-21T05:08:15;100623.00;;;12.87;37.26
70323;BME280;57735;56.264;43.898;2023-04-21T05:10:46;100614.28;;;12.93;36.58
70323;BME280;57735;56.264;43.898;2023-04-21T05:13:19;100624.72;;;13.05;36.50
70323;BME280;57735;56.264;43.898;2023-04-21T05:15:56;100613.72;;;13.16;35.91
70323;BME280;57735;56.264;43.898;2023-04-21T05:18:27;100615.91;;;13.28;36.06
70323;BME280;57735;56.264;43.898;2023-04-21T05:20:58;100610.41;;;13.38;34.59
70323;BME280;57735;56.264;43.898;2023-04-21T05:23:28;100613.41;;;13.43;34.16
70323;BME280;57735;56.264;43.898;2023-04-21T05:25:59;100603.72;;;13.50;33.95
70323;BME280;57735;56.264;43.898;2023-04-21T05:28:30;100605.22;;;13.61;33.64
70323;BME280;57735;56.264;43.898;2023-04-21T05:31:01;100606.75;;;13.72;33.63
70323;BME280;57735;56.264;43.898;2023-04-21T05:33:31;100600.84;;;13.76;32.70
70323;BME280;57735;56.264;43.898;2023-04-21T05:36:06;100596.00;;;13.80;32.10
70323;BME280;57735;56.264;43.898;2023-04-21T05:38:38;100612.56;;;13.91;32.16
70323;BME280;57735;56.264;43.898;2023-04-21T05:41:09;100605.53;;;13.98;31.21
70323;BME280;57735;56.264;43.898;2023-04-21T05:43:39;100604.03;;;14.04;30.75
70323;BME280;57735;56.264;43.898;2023-04-21T05:46:15;100607.84;;;14.10;30.38
70323;BME280;57735;56.264;43.898;2023-04-21T05:48:46;100605.16;;;14.10;29.73
70323;BME280;57735;56.264;43.898;2023-04-21T05:51:17;100601.47;;;14.11;29.53
70323;BME280;57735;56.264;43.898;2023-04-21T05:53:50;100603.47;;;14.09;29.46
70323;BME280;57735;56.264;43.898;2023-04-21T05:56:21;100596.28;;;14.17;29.44
70323;BME280;57735;56.264;43.898;2023-04-21T05:58:52;100600.25;;;14.29;29.64
70323;BME280;57735;56.264;43.898;2023-04-21T06:01:22;100592.03;;;14.31;29.24
70323;BME280;57735;56.264;43.898;2023-04-21T06:03:53;100595.22;;;14.35;29.10
70323;BME280;57735;56.264;43.898;2023-04-21T06:06:29;100593.19;;;14.45;29.46
70323;BME280;57735;56.264;43.898;2023-04-21T06:09:01;100595.34;;;14.57;29.35
70323;BME280;57735;56.264;43.898;2023-04-21T06:11:32;100599.47;;;14.68;29.12
70323;BME280;57735;56.264;43.898;2023-04-21T06:14:03;100599.25;;;14.78;28.77
70323;BME280;57735;56.264;43.898;2023-04-21T06:16:33;100594.72;;;14.78;28.78
70323;BME280;57735;56.264;43.898;2023-04-21T06:19:04;100588.66;;;14.84;29.03
70323;BME280;57735;56.264;43.898;2023-04-21T06:21:35;100589.63;;;14.91;29.16
70323;BME280;57735;56.264;43.898;2023-04-21T06:24:06;100586.91;;;14.99;28.97
70323;BME280;57735;56.264;43.898;2023-04-21T06:26:37;100591.56;;;15.06;28.72
70323;BME280;57735;56.264;43.898;2023-04-21T06:29:07;100577.53;;;15.18;28.86
70323;BME280;57735;56.264;43.898;2023-04-21T06:31:38;100589.00;;;15.12;28.88
70323;BME280;57735;56.264;43.898;2023-04-21T06:34:09;100579.56;;;15.16;29.11
70323;BME280;57735;56.264;43.898;2023-04-21T06:36:40;100591.06;;;15.25;28.86
70323;BME280;57735;56.264;43.898;2023-04-21T06:39:10;100581.88;;;15.42;28.31
70323;BME280;57735;56.264;43.898;2023-04-21T06:41:41;100574.47;;;15.44;28.32
70323;BME280;57735;56.264;43.898;2023-04-21T06:44:12;100580.69;;;15.45;28.20
70323;BME280;57735;56.264;43.898;2023-04-21T06:46:43;100577.34;;;15.43;28.31
70323;BME280;57735;56.264;43.898;2023-04-21T06:49:14;100572.59;;;15.30;28.08
70323;BME280;57735;56.264;43.898;2023-04-21T06:51:45;100579.53;;;15.24;28.30
70323;BME280;57735;56.264;43.898;2023-04-21T06:54:16;100569.31;;;15.20;27.63
70323;BME280;57735;56.264;43.898;2023-04-21T06:56:48;100566.91;;;15.25;27.73
70323;BME280;57735;56.264;43.898;2023-04-21T06:59:22;100562.28;;;15.19;28.07
70323;BME280;57735;56.264;43.898;2023-04-21T07:01:53;100572.00;;;15.20;27.95
70323;BME280;57735;56.264;43.898;2023-04-21T07:04:24;100565.31;;;15.16;27.71
70323;BME280;57735;56.264;43.898;2023-04-21T07:06:59;100558.94;;;15.17;28.03
70323;BME280;57735;56.264;43.898;2023-04-21T07:09:30;100557.00;;;15.25;28.04
70323;BME280;57735;56.264;43.898;2023-04-21T07:12:03;100563.47;;;15.39;27.53
70323;BME280;57735;56.264;43.898;2023-04-21T07:14:33;100552.44;;;15.57;27.01
70323;BME280;57735;56.264;43.898;2023-04-21T07:17:09;100560.53;;;15.72;26.96
70323;BME280;57735;56.264;43.898;2023-04-21T07:19:39;100552.72;;;15.77;26.77
70323;BME280;57735;56.264;43.898;2023-04-21T07:22:10;100558.69;;;15.87;26.85
70323;BME280;57735;56.264;43.898;2023-04-21T07:24:41;100555.34;;;15.99;26.44
70323;BME280;57735;56.264;43.898;2023-04-21T07:27:12;100557.50;;;16.04;25.39
70323;BME280;57735;56.264;43.898;2023-04-21T07:29:42;100550.56;;;16.24;25.51
70323;BME280;57735;56.264;43.898;2023-04-21T07:32:16;100556.94;;;16.38;25.36
70323;BME280;57735;56.264;43.898;2023-04-21T07:34:49;100559.88;;;16.43;25.53
70323;BME280;57735;56.264;43.898;2023-04-21T07:37:20;100556.75;;;16.39;25.30
70323;BME280;57735;56.264;43.898;2023-04-21T07:39:51;100554.06;;;16.39;25.54
70323;BME280;57735;56.264;43.898;2023-04-21T07:42:22;100553.31;;;16.31;25.01
70323;BME280;57735;56.264;43.898;2023-04-21T07:44:53;100548.22;;;16.36;24.77
70323;BME280;57735;56.264;43.898;2023-04-21T07:47:27;100542.81;;;16.51;24.74
70323;BME280;57735;56.264;43.898;2023-04-21T07:49:58;100553.22;;;16.39;23.64
70323;BME280;57735;56.264;43.898;2023-04-21T07:52:29;100549.41;;;16.33;23.50
70323;BME280;57735;56.264;43.898;2023-04-21T07:54:59;100553.31;;;16.31;23.69
70323;BME280;57735;56.264;43.898;2023-04-21T07:57:30;100538.31;;;16.22;23.65
70323;BME280;57735;56.264;43.898;2023-04-21T08:00:04;100545.69;;;16.64;23.30
70323;BME280;57735;56.264;43.898;2023-04-21T08:02:38;100543.03;;;16.85;22.61
70323;BME280;57735;56.264;43.898;2023-04-21T08:05:10;100540.75;;;17.03;22.75
70323;BME280;57735;56.264;43.898;2023-04-21T08:07:41;100539.41;;;17.14;21.87
70323;BME280;57735;56.264;43.898;2023-04-21T08:10:11;100536.00;;;17.27;22.56
70323;BME280;57735;56.264;43.898;2023-04-21T08:12:42;100532.16;;;17.36;21.77
70323;BME280;57735;56.264;43.898;2023-04-21T08:15:16;100532.06;;;17.51;22.12
70323;BME280;57735;56.264;43.898;2023-04-21T08:17:47;100529.56;;;17.49;22.04
70323;BME280;57735;56.264;43.898;2023-04-21T08:20:19;100518.22;;;17.54;22.00
70323;BME280;57735;56.264;43.898;2023-04-21T08:22:50;100520.75;;;17.62;22.06
70323;BME280;57735;56.264;43.898;2023-04-21T08:25:20;100519.66;;;17.77;22.16
70323;BME280;57735;56.264;43.898;2023-04-21T08:27:54;100514.50;;;17.83;21.60
70323;BME280;57735;56.264;43.898;2023-04-21T08:30:26;100505.38;;;17.84;22.41
70323;BME280;57735;56.264;43.898;2023-04-21T08:32:57;100514.69;;;18.09;22.73
70323;BME280;57735;56.264;43.898;2023-04-21T08:35:31;100504.59;;;18.24;22.63
70323;BME280;57735;56.264;43.898;2023-04-21T08:38:04;100501.88;;;18.24;22.66
70323;BME280;57735;56.264;43.898;2023-04-21T08:40:37;100491.22;;;18.09;22.82
70323;BME280;57735;56.264;43.898;2023-04-21T08:43:08;100491.31;;;17.88;23.26
70323;BME280;57735;56.264;43.898;2023-04-21T08:45:40;100493.88;;;17.68;23.72
70323;BME280;57735;56.264;43.898;2023-04-21T08:48:13;100495.47;;;17.35;23.67
70323;BME280;57735;56.264;43.898;2023-04-21T08:50:49;100494.63;;;17.13;24.21
70323;BME280;57735;56.264;43.898;2023-04-21T08:53:20;100490.59;;;17.02;24.44
70323;BME280;57735;56.264;43.898;2023-04-21T08:55:51;100492.00;;;16.77;24.10
70323;BME280;57735;56.264;43.898;2023-04-21T08:58:25;100489.31;;;16.62;24.44
70323;BME280;57735;56.264;43.898;2023-04-21T09:00:56;100490.72;;;16.73;24.30
70323;BME280;57735;56.264;43.898;2023-04-21T09:03:29;100486.88;;;16.82;23.81
70323;BME280;57735;56.264;43.898;2023-04-21T09:08:37;100476.84;;;16.91;24.13
70323;BME280;57735;56.264;43.898;2023-04-21T09:11:13;100475.47;;;17.01;23.77
70323;BME280;57735;56.264;43.898;2023-04-21T09:13:44;100483.22;;;17.11;23.25
70323;BME280;57735;56.264;43.898;2023-04-21T09:16:19;100472.13;;;17.21;22.36
70323;BME280;57735;56.264;43.898;2023-04-21T09:18:50;100469.09;;;17.30;23.15
70323;BME280;57735;56.264;43.898;2023-04-21T09:21:26;100468.78;;;17.47;22.69
70323;BME280;57735;56.264;43.898;2023-04-21T09:24:03;100456.47;;;17.59;22.92
70323;BME280;57735;56.264;43.898;2023-04-21T09:26:36;100455.84;;;17.63;22.40
70323;BME280;57735;56.264;43.898;2023-04-21T09:29:07;100450.97;;;17.73;22.13
70323;BME280;57735;56.264;43.898;2023-04-21T09:31:38;100459.94;;;17.81;21.95
70323;BME280;57735;56.264;43.898;2023-04-21T09:34:23;100458.97;;;17.95;21.70
70323;BME280;57735;56.264;43.898;2023-04-21T09:36:59;100457.19;;;18.08;21.58
70323;BME280;57735;56.264;43.898;2023-04-21T09:39:32;100459.38;;;18.39;22.14
70323;BME280;57735;56.264;43.898;2023-04-21T09:42:03;100467.88;;;18.36;21.22
70323;BME280;57735;56.264;43.898;2023-04-21T09:44:33;100456.81;;;18.18;21.24
70323;BME280;57735;56.264;43.898;2023-04-21T09:47:08;100453.91;;;17.78;21.49
70323;BME280;57735;56.264;43.898;2023-04-21T09:49:40;100453.78;;;17.59;21.83
70323;BME280;57735;56.264;43.898;2023-04-21T09:52:14;100460.78;;;17.60;21.44
70323;BME280;57735;56.264;43.898;2023-04-21T09:54:50;100453.34;;;17.62;21.73
70323;BME280;57735;56.264;43.898;2023-04-21T09:57:24;100446.09;;;17.90;21.34
70323;BME280;57735;56.264;43.898;2023-04-21T10:00:00;100440.91;;;17.89;21.43
70323;BME280;57735;56.264;43.898;2023-04-21T10:02:34;100442.72;;;17.82;21.40
70323;BME280;57735;56.264;43.898;2023-04-21T10:05:06;100438.59;;;17.86;21.33
70323;BME280;57735;56.264;43.898;2023-04-21T10:07:37;100447.09;;;18.24;21.63
70323;BME280;57735;56.264;43.898;2023-04-21T10:12:47;100429.72;;;18.53;20.86
70323;BME280;57735;56.264;43.898;2023-04-21T10:15:32;100438.66;;;18.53;20.55
70323;BME280;57735;56.264;43.898;2023-04-21T10:18:21;100426.47;;;18.70;20.21
70323;BME280;57735;56.264;43.898;2023-04-21T10:21:03;100430.13;;;18.49;20.31
70323;BME280;57735;56.264;43.898;2023-04-21T10:23:55;100418.44;;;18.29;20.70
70323;BME280;57735;56.264;43.898;2023-04-21T10:26:34;100421.94;;;18.17;20.81
70323;BME280;57735;56.264;43.898;2023-04-21T10:29:06;100405.09;;;18.08;20.54
70323;BME280;57735;56.264;43.898;2023-04-21T10:31:52;100409.22;;;18.04;20.72
70323;BME280;57735;56.264;43.898;2023-04-21T10:34:34;100407.81;;;18.14;20.59
70323;BME280;57735;56.264;43.898;2023-04-21T10:37:07;100404.28;;;18.14;20.64
70323;BME280;57735;56.264;43.898;2023-04-21T10:39:44;100406.34;;;18.12;20.60
70323;BME280;57735;56.264;43.898;2023-04-21T10:42:18;100398.22;;;18.05;20.54
70323;BME280;57735;56.264;43.898;2023-04-21T10:47:28;100392.44;;;18.15;20.52
70323;BME280;57735;56.264;43.898;2023-04-21T10:50:10;100400.34;;;18.17;20.24
70323;BME280;57735;56.264;43.898;2023-04-21T10:53:00;100386.28;;;18.34;19.84
70323;BME280;57735;56.264;43.898;2023-04-21T10:55:38;100388.56;;;18.37;20.10
70323;BME280;57735;56.264;43.898;2023-04-21T10:58:14;100381.09;;;18.39;20.10
70323;BME280;57735;56.264;43.898;2023-04-21T11:00:46;100375.31;;;18.42;19.85
70323;BME280;57735;56.264;43.898;2023-04-21T11:03:17;100374.50;;;18.62;20.26
70323;BME280;57735;56.264;43.898;2023-04-21T11:05:47;100383.66;;;18.67;19.51
70323;BME280;57735;56.264;43.898;2023-04-21T11:08:18;100384.25;;;18.56;19.65
70323;BME280;57735;56.264;43.898;2023-04-21T11:10:54;100382.16;;;18.52;19.56
70323;BME280;57735;56.264;43.898;2023-04-21T11:13:26;100375.72;;;18.46;19.51
70323;BME280;57735;56.264;43.898;2023-04-21T11:16:06;100368.66;;;18.52;19.82
70323;BME280;57735;56.264;43.898;2023-04-21T11:18:38;100374.75;;;18.73;19.68
70323;BME280;57735;56.264;43.898;2023-04-21T11:21:11;100366.25;;;18.76;19.57
70323;BME280;57735;56.264;43.898;2023-04-21T11:23:56;100364.78;;;18.74;19.69
70323;BME280;57735;56.264;43.898;2023-04-21T11:26:34;100371.81;;;18.62;19.76
70323;BME280;57735;56.264;43.898;2023-04-21T11:29:08;100360.16;;;18.41;19.83
70323;BME280;57735;56.264;43.898;2023-04-21T11:31:44;100358.75;;;18.59;19.75
70323;BME280;57735;56.264;43.898;2023-04-21T11:34:19;100350.81;;;18.57;20.11
70323;BME280;57735;56.264;43.898;2023-04-21T11:36:51;100353.28;;;18.45;20.25
70323;BME280;57735;56.264;43.898;2023-04-21T11:39:24;100349.81;;;18.65;20.28
70323;BME280;57735;56.264;43.898;2023-04-21T11:41:55;100347.53;;;18.81;20.13
70323;BME280;57735;56.264;43.898;2023-04-21T11:44:44;100349.19;;;18.96;19.65
70323;BME280;57735;56.264;43.898;2023-04-21T11:47:21;100346.09;;;18.92;19.60
70323;BME280;57735;56.264;43.898;2023-04-21T11:49:56;100339.03;;;18.91;19.54
70323;BME280;57735;56.264;43.898;2023-04-21T11:52:32;100333.41;;;18.86;19.49
70323;BME280;57735;56.264;43.898;2023-04-21T11:55:10;100336.94;;;18.87;19.42
70323;BME280;57735;56.264;43.898;2023-04-21T11:57:42;100340.88;;;18.77;19.25
70323;BME280;57735;56.264;43.898;2023-04-21T12:00:13;100336.94;;;18.73;20.10
70323;BME280;57735;56.264;43.898;2023-04-21T12:02:56;100320.88;;;19.25;19.70
70323;BME280;57735;56.264;43.898;2023-04-21T12:05:36;100327.75;;;19.21;19.69
70323;BME280;57735;56.264;43.898;2023-04-21T12:08:12;100333.31;;;19.32;19.27
70323;BME280;57735;56.264;43.898;2023-04-21T12:10:45;100331.66;;;19.38;19.36
70323;BME280;57735;56.264;43.898;2023-04-21T12:13:22;100324.59;;;19.37;19.23
70323;BME280;57735;56.264;43.898;2023-04-21T12:15:54;100324.84;;;19.22;19.23
70323;BME280;57735;56.264;43.898;2023-04-21T12:18:30;100325.69;;;19.09;19.24
70323;BME280;57735;56.264;43.898;2023-04-21T12:21:04;100318.00;;;19.06;19.02
70323;BME280;57735;56.264;43.898;2023-04-21T12:23:36;100311.56;;;18.94;19.11
70323;BME280;57735;56.264;43.898;2023-04-21T12:26:08;100313.84;;;18.97;19.29
70323;BME280;57735;56.264;43.898;2023-04-21T12:28:39;100310.31;;;19.03;19.05
70323;BME280;57735;56.264;43.898;2023-04-21T12:31:10;100308.78;;;19.27;18.98
70323;BME280;57735;56.264;43.898;2023-04-21T12:33:41;100306.38;;;19.77;18.44
70323;BME280;57735;56.264;43.898;2023-04-21T12:36:12;100306.66;;;20.38;18.03
70323;BME280;57735;56.264;43.898;2023-04-21T12:38:43;100306.91;;;20.86;17.24
70323;BME280;57735;56.264;43.898;2023-04-21T12:41:14;100298.88;;;21.16;16.95
70323;BME280;57735;56.264;43.898;2023-04-21T12:43:47;100294.25;;;21.23;16.77
70323;BME280;57735;56.264;43.898;2023-04-21T12:46:20;100295.00;;;21.31;16.67
70323;BME280;57735;56.264;43.898;2023-04-21T12:48:52;100280.47;;;20.82;17.05
70323;BME280;57735;56.264;43.898;2023-04-21T12:51:23;100283.94;;;20.08;17.67
70323;BME280;57735;56.264;43.898;2023-04-21T12:53:54;100280.47;;;19.56;17.97
70323;BME280;57735;56.264;43.898;2023-04-21T12:56:25;100281.00;;;19.00;18.36
70323;BME280;57735;56.264;43.898;2023-04-21T12:58:56;100280.88;;;20.29;17.82
70323;BME280;57735;56.264;43.898;2023-04-21T13:01:27;100278.00;;;21.42;16.53
70323;BME280;57735;56.264;43.898;2023-04-21T13:03:58;100285.75;;;22.05;16.14
70323;BME280;57735;56.264;43.898;2023-04-21T13:06:29;100271.13;;;22.82;15.93
70323;BME280;57735;56.264;43.898;2023-04-21T13:09:02;100277.66;;;23.96;16.49
70323;BME280;57735;56.264;43.898;2023-04-21T13:11:36;100276.25;;;24.89;14.08
70323;BME280;57735;56.264;43.898;2023-04-21T13:14:07;100265.97;;;25.30;14.67
70323;BME280;57735;56.264;43.898;2023-04-21T13:16:38;100263.59;;;25.38;13.85